sensor_id;sensor_type;location;lat;lon;timestamp;temperature;humidity
22450;DHT22;11392;57.390;-2.468;2023-02-28T00:00:37;5.00;99.90
22450;DHT22;11392;57.390;-2.468;2023-02-28T00:03:04;4.90;99.90
22450;DHT22;11392;57.390;-2.468;2023-02-28T00:05:32;4.80;99.90
22450;DHT22;11392;57.390;-2.468;2023-02-28T00:07:59;4.70;99.90
22450;DHT22;11392;57.390;-2.468;2023-02-28T00:10:29;4.70;99.90
22450;DHT22;11392;57.390;-2.468;2023-02-28T00:13:06;4.90;99.90
22450;DHT22;11392;57.390;-2.468;2023-02-28T00:15:33;5.00;99.90
22450;DHT22;11392;57.390;-2.468;2023-02-28T00:18:00;5.10;99.90
22450;DHT22;11392;57.390;-2.468;2023-02-28T00:20:27;5.10;99.90
22450;DHT22;11392;57.390;-2.468;2023-02-28T00:22:54;5.10;99.90
22450;DHT22;11392;57.390;-2.468;2023-02-28T00:25:24;5.10;99.90
22450;DHT22;11392;57.390;-2.468;2023-02-28T00:27:52;5.10;99.90
22450;DHT22;11392;57.390;-2.468;2023-02-28T00:30:21;5.10;99.90
22450;DHT22;11392;57.390;-2.468;2023-02-28T00:32:50;5.10;99.90
22450;DHT22;11392;57.390;-2.468;2023-02-28T00:35:17;5.10;99.90
22450;DHT22;11392;57.390;-2.468;2023-02-28T00:37:44;5.10;99.90
22450;DHT22;11392;57.390;-2.468;2023-02-28T00:40:11;5.10;99.90
22450;DHT22;11392;57.390;-2.468;2023-02-28T00:42:39;5.10;99.90
22450;DHT22;11392;57.390;-2.468;2023-02-28T00:45:06;5.10;99.90
22450;DHT22;11392;57.390;-2.468;2023-02-28T00:47:35;5.10;99.90
22450;DHT22;11392;57.390;-2.468;2023-02-28T00:50:02;5.10;99.90
22450;DHT22;11392;57.390;-2.468;2023-02-28T00:52:30;5.10;99.90
22450;DHT22;11392;57.390;-2.468;2023-02-28T00:54:57;5.20;99.90
22450;DHT22;11392;57.390;-2.468;2023-02-28T00:57:24;5.20;99.90
22450;DHT22;11392;57.390;-2.468;2023-02-28T00:59:51;5.20;99.90
22450;DHT22;11392;57.390;-2.468;2023-02-28T01:02:22;5.10;99.90
22450;DHT22;11392;57.390;-2.468;2023-02-28T01:04:52;5.00;99.90
22450;DHT22;11392;57.390;-2.468;2023-02-28T01:07:19;4.90;99.90
22450;DHT22;11392;57.390;-2.468;2023-02-28T01:09:46;4.80;99.90
22450;DHT22;11392;57.390;-2.468;2023-02-28T01:12:13;4.80;99.90
22450;DHT22;11392;57.390;-2.468;2023-02-28T01:14:40;4.70;99.90
22450;DHT22;11392;57.390;-2.468;2023-02-28T01:17:08;4.70;99.90
22450;DHT22;11392;57.390;-2.468;2023-02-28T01:19:35;4.60;99.90
22450;DHT22;11392;57.390;-2.468;2023-02-28T01:22:04;4.60;99.90
22450;DHT22;11392;57.390;-2.468;2023-02-28T01:24:32;4.60;99.90
22450;DHT22;11392;57.390;-2.468;2023-02-28T01:27:00;4.60;99.90
22450;DHT22;11392;57.390;-2.468;2023-02-28T01:29:27;4.60;99.90
22450;DHT22;11392;57.390;-2.468;2023-02-28T01:31:54;4.60;99.90
22450;DHT22;11392;57.390;-2.468;2023-02-28T01:34:21;4.60;99.90
22450;DHT22;11392;57.390;-2.468;2023-02-28T01:36:48;4.60;99.90
22450;DHT22;11392;57.390;-2.468;2023-02-28T01:39:17;4.50;99.90
22450;DHT22;11392;57.390;-2.468;2023-02-28T01:41:44;4.40;99.90
22450;DHT22;11392;57.390;-2.468;2023-02-28T01:47:16;4.40;99.90
22450;DHT22;11392;57.390;-2.468;2023-02-28T01:49:43;4.30;99.90
22450;DHT22;11392;57.390;-2.468;2023-02-28T01:52:12;4.30;99.90
22450;DHT22;11392;57.390;-2.468;2023-02-28T01:54:53;4.30;99.90
22450;DHT22;11392;57.390;-2.468;2023-02-28T01:57:25;4.30;99.90
22450;DHT22;11392;57.390;-2.468;2023-02-28T01:59:58;4.30;99.90
22450;DHT22;11392;57.390;-2.468;2023-02-28T02:02:27;4.30;99.90
22450;DHT22;11392;57.390;-2.468;2023-02-28T02:05:03;4.30;99.90
22450;DHT22;11392;57.390;-2.468;2023-02-28T02:07:33;4.30;99.90
22450;DHT22;11392;57.390;-2.468;2023-02-28T02:10:16;4.30;99.90
22450;DHT22;11392;57.390;-2.468;2023-02-28T02:15:34;4.30;99.90
22450;DHT22;11392;57.390;-2.468;2023-02-28T02:18:17;4.30;99.90
22450;DHT22;11392;57.390;-2.468;2023-02-28T02:24:02;4.30;99.90
22450;DHT22;11392;57.390;-2.468;2023-02-28T02:32:16;4.50;99.90
22450;DHT22;11392;57.390;-2.468;2023-02-28T02:35:14;4.60;99.90
22450;DHT22;11392;57.390;-2.468;2023-02-28T02:37:52;4.40;99.90
22450;DHT22;11392;57.390;-2.468;2023-02-28T02:40:27;4.30;99.90
22450;DHT22;11392;57.390;-2.468;2023-02-28T02:43:12;4.20;99.90
22450;DHT22;11392;57.390;-2.468;2023-02-28T02:48:30;4.10;99.90
22450;DHT22;11392;57.390;-2.468;2023-02-28T02:51:01;4.10;99.90
22450;DHT22;11392;57.390;-2.468;2023-02-28T02:53:35;4.00;99.90
22450;DHT22;11392;57.390;-2.468;2023-02-28T02:56:04;3.90;99.90
22450;DHT22;11392;57.390;-2.468;2023-02-28T02:58:35;3.90;99.90
22450;DHT22;11392;57.390;-2.468;2023-02-28T03:01:12;3.90;99.90
22450;DHT22;11392;57.390;-2.468;2023-02-28T03:03:40;3.80;99.90
22450;DHT22;11392;57.390;-2.468;2023-02-28T03:06:07;3.80;99.90
22450;DHT22;11392;57.390;-2.468;2023-02-28T03:08:42;3.80;99.90
22450;DHT22;11392;57.390;-2.468;2023-02-28T03:11:13;3.90;99.90
22450;DHT22;11392;57.390;-2.468;2023-02-28T03:27:15;4.00;99.90
22450;DHT22;11392;57.390;-2.468;2023-02-28T03:29:50;4.00;99.90
22450;DHT22;11392;57.390;-2.468;2023-02-28T03:32:40;4.00;99.90
22450;DHT22;11392;57.390;-2.468;2023-02-28T03:35:22;4.00;99.90
22450;DHT22;11392;57.390;-2.468;2023-02-28T03:37:53;4.10;99.90
22450;DHT22;11392;57.390;-2.468;2023-02-28T03:40:23;4.10;99.90
22450;DHT22;11392;57.390;-2.468;2023-02-28T03:42:55;4.00;99.90
22450;DHT22;11392;57.390;-2.468;2023-02-28T03:45:28;4.10;99.90
22450;DHT22;11392;57.390;-2.468;2023-02-28T03:48:11;4.00;99.90
22450;DHT22;11392;57.390;-2.468;2023-02-28T03:50:41;4.00;99.90
22450;DHT22;11392;57.390;-2.468;2023-02-28T03:53:27;4.10;99.90
22450;DHT22;11392;57.390;-2.468;2023-02-28T03:56:01;4.10;99.90
22450;DHT22;11392;57.390;-2.468;2023-02-28T04:01:39;4.10;99.90
22450;DHT22;11392;57.390;-2.468;2023-02-28T04:04:09;4.10;99.90
22450;DHT22;11392;57.390;-2.468;2023-02-28T04:06:36;4.10;99.90
22450;DHT22;11392;57.390;-2.468;2023-02-28T04:09:05;4.10;99.90
22450;DHT22;11392;57.390;-2.468;2023-02-28T04:11:36;4.10;99.90
22450;DHT22;11392;57.390;-2.468;2023-02-28T04:14:05;4.00;99.90
22450;DHT22;11392;57.390;-2.468;2023-02-28T04:16:34;4.00;99.90
22450;DHT22;11392;57.390;-2.468;2023-02-28T04:19:03;4.00;99.90
22450;DHT22;11392;57.390;-2.468;2023-02-28T04:21:34;3.90;99.90
22450;DHT22;11392;57.390;-2.468;2023-02-28T04:24:01;3.90;99.90
22450;DHT22;11392;57.390;-2.468;2023-02-28T04:26:29;3.80;99.90
22450;DHT22;11392;57.390;-2.468;2023-02-28T04:28:58;3.80;99.90
22450;DHT22;11392;57.390;-2.468;2023-02-28T04:31:25;3.80;99.90
22450;DHT22;11392;57.390;-2.468;2023-02-28T04:33:52;3.70;99.90
22450;DHT22;11392;57.390;-2.468;2023-02-28T04:36:19;3.70;99.90
22450;DHT22;11392;57.390;-2.468;2023-02-28T04:38:46;3.80;99.90
22450;DHT22;11392;57.390;-2.468;2023-02-28T04:41:13;3.80;99.90
22450;DHT22;11392;57.390;-2.468;2023-02-28T04:43:40;3.90;99.90
22450;DHT22;11392;57.390;-2.468;2023-02-28T04:46:08;3.90;99.90
22450;DHT22;11392;57.390;-2.468;2023-02-28T04:48:37;3.90;99.90
22450;DHT22;11392;57.390;-2.468;2023-02-28T04:51:09;3.90;99.90
22450;DHT22;11392;57.390;-2.468;2023-02-28T04:53:38;3.90;99.90
22450;DHT22;11392;57.390;-2.468;2023-02-28T04:56:06;3.80;99.90
22450;DHT22;11392;57.390;-2.468;2023-02-28T04:58:34;3.80;99.90
22450;DHT22;11392;57.390;-2.468;2023-02-28T05:01:06;3.80;99.90
22450;DHT22;11392;57.390;-2.468;2023-02-28T05:03:39;3.80;99.90
22450;DHT22;11392;57.390;-2.468;2023-02-28T05:06:10;3.80;99.90
22450;DHT22;11392;57.390;-2.468;2023-02-28T05:08:38;3.80;99.90
22450;DHT22;11392;57.390;-2.468;2023-02-28T05:11:15;3.80;99.90
22450;DHT22;11392;57.390;-2.468;2023-02-28T05:13:42;3.70;99.90
22450;DHT22;11392;57.390;-2.468;2023-02-28T05:16:10;3.70;99.90
22450;DHT22;11392;57.390;-2.468;2023-02-28T05:18:37;3.70;99.90
22450;DHT22;11392;57.390;-2.468;2023-02-28T05:21:05;3.60;99.90
22450;DHT22;11392;57.390;-2.468;2023-02-28T05:23:32;3.60;99.90
22450;DHT22;11392;57.390;-2.468;2023-02-28T05:25:59;3.60;99.90
22450;DHT22;11392;57.390;-2.468;2023-02-28T05:28:26;3.60;99.90
22450;DHT22;11392;57.390;-2.468;2023-02-28T05:30:53;3.60;99.90
22450;DHT22;11392;57.390;-2.468;2023-02-28T05:33:20;3.60;99.90
22450;DHT22;11392;57.390;-2.468;2023-02-28T05:35:47;3.60;99.90
22450;DHT22;11392;57.390;-2.468;2023-02-28T05:38:14;3.50;99.90
22450;DHT22;11392;57.390;-2.468;2023-02-28T05:40:41;3.60;99.90
22450;DHT22;11392;57.390;-2.468;2023-02-28T05:43:10;3.60;99.90
22450;DHT22;11392;57.390;-2.468;2023-02-28T05:45:38;3.70;99.90
22450;DHT22;11392;57.390;-2.468;2023-02-28T05:48:05;3.80;99.90
22450;DHT22;11392;57.390;-2.468;2023-02-28T05:50:32;3.70;99.90
22450;DHT22;11392;57.390;-2.468;2023-02-28T05:52:59;3.80;99.90
22450;DHT22;11392;57.390;-2.468;2023-02-28T05:55:26;3.70;99.90
22450;DHT22;11392;57.390;-2.468;2023-02-28T05:57:53;3.80;99.90
22450;DHT22;11392;57.390;-2.468;2023-02-28T06:00:20;3.80;99.90
22450;DHT22;11392;57.390;-2.468;2023-02-28T06:02:47;3.80;99.90
22450;DHT22;11392;57.390;-2.468;2023-02-28T06:05:17;3.90;99.90
22450;DHT22;11392;57.390;-2.468;2023-02-28T06:07:44;3.90;99.90
22450;DHT22;11392;57.390;-2.468;2023-02-28T06:10:12;3.90;99.90
22450;DHT22;11392;57.390;-2.468;2023-02-28T06:12:39;4.00;99.90
22450;DHT22;11392;57.390;-2.468;2023-02-28T06:15:12;4.00;99.90
22450;DHT22;11392;57.390;-2.468;2023-02-28T06:17:43;4.00;99.90
22450;DHT22;11392;57.390;-2.468;2023-02-28T06:20:11;4.00;99.90
22450;DHT22;11392;57.390;-2.468;2023-02-28T06:22:39;4.00;99.90
22450;DHT22;11392;57.390;-2.468;2023-02-28T06:25:07;4.00;99.90
22450;DHT22;11392;57.390;-2.468;2023-02-28T06:27:34;4.00;99.90
22450;DHT22;11392;57.390;-2.468;2023-02-28T06:30:01;3.90;99.90
22450;DHT22;11392;57.390;-2.468;2023-02-28T06:32:28;3.90;99.90
22450;DHT22;11392;57.390;-2.468;2023-02-28T06:34:55;3.90;99.90
22450;DHT22;11392;57.390;-2.468;2023-02-28T06:37:24;3.90;99.90
22450;DHT22;11392;57.390;-2.468;2023-02-28T06:39:56;3.90;99.90
22450;DHT22;11392;57.390;-2.468;2023-02-28T06:42:24;3.90;99.90
22450;DHT22;11392;57.390;-2.468;2023-02-28T06:44:56;3.90;99.90
22450;DHT22;11392;57.390;-2.468;2023-02-28T06:47:23;4.00;99.90
22450;DHT22;11392;57.390;-2.468;2023-02-28T06:49:50;4.00;99.90
22450;DHT22;11392;57.390;-2.468;2023-02-28T06:52:17;4.00;99.90
22450;DHT22;11392;57.390;-2.468;2023-02-28T06:54:44;4.00;99.90
22450;DHT22;11392;57.390;-2.468;2023-02-28T06:57:11;4.10;99.90
22450;DHT22;11392;57.390;-2.468;2023-02-28T06:59:38;4.10;99.90
22450;DHT22;11392;57.390;-2.468;2023-02-28T07:02:05;4.10;99.90
22450;DHT22;11392;57.390;-2.468;2023-02-28T07:04:33;4.10;99.90
22450;DHT22;11392;57.390;-2.468;2023-02-28T07:07:00;4.10;99.90
22450;DHT22;11392;57.390;-2.468;2023-02-28T07:09:27;4.10;99.90
22450;DHT22;11392;57.390;-2.468;2023-02-28T07:12:01;4.10;99.90
22450;DHT22;11392;57.390;-2.468;2023-02-28T07:14:28;4.20;99.90
22450;DHT22;11392;57.390;-2.468;2023-02-28T07:16:55;4.20;99.90
22450;DHT22;11392;57.390;-2.468;2023-02-28T07:19:22;4.20;99.90
22450;DHT22;11392;57.390;-2.468;2023-02-28T07:21:49;4.20;99.90
22450;DHT22;11392;57.390;-2.468;2023-02-28T07:24:16;4.10;99.90
22450;DHT22;11392;57.390;-2.468;2023-02-28T07:26:44;4.00;99.90
22450;DHT22;11392;57.390;-2.468;2023-02-28T07:29:11;4.00;99.90
22450;DHT22;11392;57.390;-2.468;2023-02-28T07:31:38;4.00;99.90
22450;DHT22;11392;57.390;-2.468;2023-02-28T07:34:05;3.90;99.90
22450;DHT22;11392;57.390;-2.468;2023-02-28T07:36:32;4.00;99.90
22450;DHT22;11392;57.390;-2.468;2023-02-28T07:38:59;4.00;99.90
22450;DHT22;11392;57.390;-2.468;2023-02-28T07:41:26;4.10;99.90
22450;DHT22;11392;57.390;-2.468;2023-02-28T07:43:55;4.10;99.90
22450;DHT22;11392;57.390;-2.468;2023-02-28T07:46:24;4.10;99.90
22450;DHT22;11392;57.390;-2.468;2023-02-28T07:48:51;4.20;99.90
22450;DHT22;11392;57.390;-2.468;2023-02-28T07:51:19;4.20;99.90
22450;DHT22;11392;57.390;-2.468;2023-02-28T07:53:47;4.30;99.90
22450;DHT22;11392;57.390;-2.468;2023-02-28T07:56:14;4.30;99.90
22450;DHT22;11392;57.390;-2.468;2023-02-28T07:58:41;4.30;99.90
22450;DHT22;11392;57.390;-2.468;2023-02-28T08:01:10;4.40;99.90
22450;DHT22;11392;57.390;-2.468;2023-02-28T08:03:38;4.40;99.90
22450;DHT22;11392;57.390;-2.468;2023-02-28T08:06:07;4.40;99.90
22450;DHT22;11392;57.390;-2.468;2023-02-28T08:08:38;4.40;99.90
22450;DHT22;11392;57.390;-2.468;2023-02-28T08:11:05;4.50;99.90
22450;DHT22;11392;57.390;-2.468;2023-02-28T08:13:32;4.60;99.90
22450;DHT22;11392;57.390;-2.468;2023-02-28T08:16:01;4.50;99.90
22450;DHT22;11392;57.390;-2.468;2023-02-28T08:18:29;4.60;99.90
22450;DHT22;11392;57.390;-2.468;2023-02-28T08:20:56;4.50;99.90
22450;DHT22;11392;57.390;-2.468;2023-02-28T08:23:24;4.60;99.90
22450;DHT22;11392;57.390;-2.468;2023-02-28T08:25:57;4.60;99.90
22450;DHT22;11392;57.390;-2.468;2023-02-28T08:28:24;4.60;99.90
22450;DHT22;11392;57.390;-2.468;2023-02-28T08:30:53;4.60;99.90
22450;DHT22;11392;57.390;-2.468;2023-02-28T08:33:21;4.60;99.90
22450;DHT22;11392;57.390;-2.468;2023-02-28T08:35:52;4.60;99.90
22450;DHT22;11392;57.390;-2.468;2023-02-28T08:38:20;4.70;99.90
22450;DHT22;11392;57.390;-2.468;2023-02-28T08:40:47;4.80;99.90
22450;DHT22;11392;57.390;-2.468;2023-02-28T08:43:14;4.80;99.90
22450;DHT22;11392;57.390;-2.468;2023-02-28T08:45:41;4.90;99.90
22450;DHT22;11392;57.390;-2.468;2023-02-28T08:48:08;4.80;99.90
22450;DHT22;11392;57.390;-2.468;2023-02-28T08:50:35;4.80;99.90
22450;DHT22;11392;57.390;-2.468;2023-02-28T08:53:02;4.80;99.90
22450;DHT22;11392;57.390;-2.468;2023-02-28T08:55:31;4.90;99.90
22450;DHT22;11392;57.390;-2.468;2023-02-28T08:57:58;5.00;99.90
22450;DHT22;11392;57.390;-2.468;2023-02-28T09:00:25;5.00;99.90
22450;DHT22;11392;57.390;-2.468;2023-02-28T09:02:52;5.10;99.90
22450;DHT22;11392;57.390;-2.468;2023-02-28T09:05:19;5.20;99.90
22450;DHT22;11392;57.390;-2.468;2023-02-28T09:07:46;5.40;99.90
22450;DHT22;11392;57.390;-2.468;2023-02-28T09:10:13;5.40;99.90
22450;DHT22;11392;57.390;-2.468;2023-02-28T09:12:40;5.40;99.90
22450;DHT22;11392;57.390;-2.468;2023-02-28T09:15:07;5.40;99.90
22450;DHT22;11392;57.390;-2.468;2023-02-28T09:17:35;5.40;99.90
22450;DHT22;11392;57.390;-2.468;2023-02-28T09:20:02;5.40;99.90
22450;DHT22;11392;57.390;-2.468;2023-02-28T09:22:29;5.50;99.90
22450;DHT22;11392;57.390;-2.468;2023-02-28T09:24:56;5.40;99.90
22450;DHT22;11392;57.390;-2.468;2023-02-28T09:27:23;5.50;99.90
22450;DHT22;11392;57.390;-2.468;2023-02-28T09:29:50;5.40;99.90
22450;DHT22;11392;57.390;-2.468;2023-02-28T09:32:17;5.50;99.90
22450;DHT22;11392;57.390;-2.468;2023-02-28T09:34:44;5.60;99.90
22450;DHT22;11392;57.390;-2.468;2023-02-28T09:37:11;5.70;99.90
22450;DHT22;11392;57.390;-2.468;2023-02-28T09:39:38;5.80;99.90
22450;DHT22;11392;57.390;-2.468;2023-02-28T09:42:11;5.90;99.90
22450;DHT22;11392;57.390;-2.468;2023-02-28T09:44:45;5.80;99.90
22450;DHT22;11392;57.390;-2.468;2023-02-28T09:50:17;5.80;99.90
22450;DHT22;11392;57.390;-2.468;2023-02-28T09:52:50;5.80;99.90
22450;DHT22;11392;57.390;-2.468;2023-02-28T09:55:30;5.90;99.90
22450;DHT22;11392;57.390;-2.468;2023-02-28T10:01:24;5.70;99.90
22450;DHT22;11392;57.390;-2.468;2023-02-28T10:04:02;5.70;99.90
22450;DHT22;11392;57.390;-2.468;2023-02-28T10:06:38;5.80;99.90
22450;DHT22;11392;57.390;-2.468;2023-02-28T10:09:13;5.90;99.90
22450;DHT22;11392;57.390;-2.468;2023-02-28T10:11:44;6.00;99.90
22450;DHT22;11392;57.390;-2.468;2023-02-28T10:14:16;6.00;99.90
22450;DHT22;11392;57.390;-2.468;2023-02-28T10:17:00;6.10;99.90
22450;DHT22;11392;57.390;-2.468;2023-02-28T10:19:38;6.30;99.90
22450;DHT22;11392;57.390;-2.468;2023-02-28T10:22:19;6.60;99.90
22450;DHT22;11392;57.390;-2.468;2023-02-28T10:24:49;6.90;99.90
22450;DHT22;11392;57.390;-2.468;2023-02-28T10:27:28;7.00;99.90
22450;DHT22;11392;57.390;-2.468;2023-02-28T10:29:58;7.20;99.90
22450;DHT22;11392;57.390;-2.468;2023-02-28T10:32:32;7.30;99.90
22450;DHT22;11392;57.390;-2.468;2023-02-28T10:37:38;7.20;99.90
22450;DHT22;11392;57.390;-2.468;2023-02-28T10:40:24;7.00;99.90
22450;DHT22;11392;57.390;-2.468;2023-02-28T10:43:02;7.10;99.90
22450;DHT22;11392;57.390;-2.468;2023-02-28T10:45:34;7.00;99.90
22450;DHT22;11392;57.390;-2.468;2023-02-28T10:58:50;6.70;99.90
22450;DHT22;11392;57.390;-2.468;2023-02-28T11:01:22;6.70;99.90
22450;DHT22;11392;57.390;-2.468;2023-02-28T11:03:50;6.60;99.90
22450;DHT22;11392;57.390;-2.468;2023-02-28T11:06:29;6.70;99.90
22450;DHT22;11392;57.390;-2.468;2023-02-28T11:09:03;6.70;99.90
22450;DHT22;11392;57.390;-2.468;2023-02-28T11:11:42;6.90;99.90
22450;DHT22;11392;57.390;-2.468;2023-02-28T11:14:24;7.10;99.90
22450;DHT22;11392;57.390;-2.468;2023-02-28T11:16:52;7.10;99.90
22450;DHT22;11392;57.390;-2.468;2023-02-28T11:19:44;7.20;99.90
22450;DHT22;11392;57.390;-2.468;2023-02-28T11:22:19;7.40;99.90
22450;DHT22;11392;57.390;-2.468;2023-02-28T11:24:53;7.50;99.90
22450;DHT22;11392;57.390;-2.468;2023-02-28T11:29:59;7.70;99.90
22450;DHT22;11392;57.390;-2.468;2023-02-28T11:32:28;7.70;99.90
22450;DHT22;11392;57.390;-2.468;2023-02-28T11:35:36;7.80;99.90
22450;DHT22;11392;57.390;-2.468;2023-02-28T11:38:10;7.70;99.90
22450;DHT22;11392;57.390;-2.468;2023-02-28T11:51:51;7.30;99.90
22450;DHT22;11392;57.390;-2.468;2023-02-28T11:57:33;7.20;99.90
22450;DHT22;11392;57.390;-2.468;2023-02-28T12:02:56;7.10;99.90
22450;DHT22;11392;57.390;-2.468;2023-02-28T12:10:29;7.00;99.90
22450;DHT22;11392;57.390;-2.468;2023-02-28T12:13:08;7.00;99.90
22450;DHT22;11392;57.390;-2.468;2023-02-28T12:26:38;6.90;99.90
22450;DHT22;11392;57.390;-2.468;2023-02-28T12:29:22;6.90;99.90
22450;DHT22;11392;57.390;-2.468;2023-02-28T12:31:58;6.90;99.90
22450;DHT22;11392;57.390;-2.468;2023-02-28T12:34:31;6.90;99.90
22450;DHT22;11392;57.390;-2.468;2023-02-28T12:37:05;6.90;99.90
22450;DHT22;11392;57.390;-2.468;2023-02-28T12:39:41;7.00;99.90
22450;DHT22;11392;57.390;-2.468;2023-02-28T12:42:27;7.00;99.90
22450;DHT22;11392;57.390;-2.468;2023-02-28T12:45:03;7.00;99.90
22450;DHT22;11392;57.390;-2.468;2023-02-28T12:47:38;6.90;99.90
22450;DHT22;11392;57.390;-2.468;2023-02-28T12:50:08;7.00;99.90
22450;DHT22;11392;57.390;-2.468;2023-02-28T13:09:18;7.10;99.90
22450;DHT22;11392;57.390;-2.468;2023-02-28T13:11:52;7.10;99.90
22450;DHT22;11392;57.390;-2.468;2023-02-28T13:14:34;7.10;99.90
22450;DHT22;11392;57.390;-2.468;2023-02-28T13:17:11;7.10;99.90
22450;DHT22;11392;57.390;-2.468;2023-02-28T13:24:52;7.20;99.90
22450;DHT22;11392;57.390;-2.468;2023-02-28T13:27:24;7.10;99.90
22450;DHT22;11392;57.390;-2.468;2023-02-28T13:29:58;7.10;99.90
22450;DHT22;11392;57.390;-2.468;2023-02-28T13:42:24;7.00;99.90
22450;DHT22;11392;57.390;-2.468;2023-02-28T13:56:23;7.00;99.90
22450;DHT22;11392;57.390;-2.468;2023-02-28T14:06:36;7.20;99.90
22450;DHT22;11392;57.390;-2.468;2023-02-28T14:09:28;7.20;99.90
22450;DHT22;11392;57.390;-2.468;2023-02-28T14:11:56;7.20;99.90
22450;DHT22;11392;57.390;-2.468;2023-02-28T14:17:23;7.20;99.90
22450;DHT22;11392;57.390;-2.468;2023-02-28T14:19:51;7.20;99.90
22450;DHT22;11392;57.390;-2.468;2023-02-28T14:36:05;7.20;99.90
22450;DHT22;11392;57.390;-2.468;2023-02-28T14:38:42;7.20;99.90
22450;DHT22;11392;57.390;-2.468;2023-02-28T14:41:38;7.20;99.90
22450;DHT22;11392;57.390;-2.468;2023-02-28T14:44:25;7.20;99.90
22450;DHT22;11392;57.390;-2.468;2023-02-28T14:49:37;7.30;99.90
22450;DHT22;11392;57.390;-2.468;2023-02-28T14:52:29;7.20;99.90
22450;DHT22;11392;57.390;-2.468;2023-02-28T14:55:03;7.30;99.90
22450;DHT22;11392;57.390;-2.468;2023-02-28T14:57:33;7.30;99.90
22450;DHT22;11392;57.390;-2.468;2023-02-28T15:00:20;7.30;99.90
22450;DHT22;11392;57.390;-2.468;2023-02-28T15:02:48;7.40;99.90
22450;DHT22;11392;57.390;-2.468;2023-02-28T15:07:45;7.30;99.90
22450;DHT22;11392;57.390;-2.468;2023-02-28T15:12:52;7.40;99.90
22450;DHT22;11392;57.390;-2.468;2023-02-28T15:15:20;7.40;99.90
22450;DHT22;11392;57.390;-2.468;2023-02-28T15:18:03;7.40;99.90
22450;DHT22;11392;57.390;-2.468;2023-02-28T15:20:32;7.30;99.90
22450;DHT22;11392;57.390;-2.468;2023-02-28T15:23:00;7.30;99.90
22450;DHT22;11392;57.390;-2.468;2023-02-28T15:25:27;7.30;99.90
22450;DHT22;11392;57.390;-2.468;2023-02-28T15:27:56;7.20;99.90
22450;DHT22;11392;57.390;-2.468;2023-02-28T15:30:27;7.20;99.90
22450;DHT22;11392;57.390;-2.468;2023-02-28T15:35:40;7.10;99.90
22450;DHT22;11392;57.390;-2.468;2023-02-28T15:38:17;7.00;99.90
22450;DHT22;11392;57.390;-2.468;2023-02-28T15:40:52;6.90;99.90
22450;DHT22;11392;57.390;-2.468;2023-02-28T15:43:35;6.90;99.90
22450;DHT22;11392;57.390;-2.468;2023-02-28T15:46:28;7.00;99.90
22450;DHT22;11392;57.390;-2.468;2023-02-28T15:48:56;6.90;99.90
22450;DHT22;11392;57.390;-2.468;2023-02-28T15:51:38;6.90;99.90
22450;DHT22;11392;57.390;-2.468;2023-02-28T15:54:08;7.00;99.90
22450;DHT22;11392;57.390;-2.468;2023-02-28T15:56:42;6.90;99.90
22450;DHT22;11392;57.390;-2.468;2023-02-28T15:59:30;6.90;99.90
22450;DHT22;11392;57.390;-2.468;2023-02-28T16:02:18;6.90;99.90
22450;DHT22;11392;57.390;-2.468;2023-02-28T16:05:24;6.90;99.90
22450;DHT22;11392;57.390;-2.468;2023-02-28T16:08:00;6.90;99.90
22450;DHT22;11392;57.390;-2.468;2023-02-28T16:10:28;6.90;99.90
22450;DHT22;11392;57.390;-2.468;2023-02-28T16:12:56;6.90;99.90
22450;DHT22;11392;57.390;-2.468;2023-02-28T16:15:37;6.80;99.90
22450;DHT22;11392;57.390;-2.468;2023-02-28T16:18:13;6.80;99.90
22450;DHT22;11392;57.390;-2.468;2023-02-28T16:20:42;6.80;99.90
22450;DHT22;11392;57.390;-2.468;2023-02-28T16:23:11;6.70;99.90
22450;DHT22;11392;57.390;-2.468;2023-02-28T16:25:42;6.60;99.90
22450;DHT22;11392;57.390;-2.468;2023-02-28T16:28:22;6.50;99.90
22450;DHT22;11392;57.390;-2.468;2023-02-28T16:30:55;6.50;99.90
22450;DHT22;11392;57.390;-2.468;2023-02-28T16:33:23;6.50;99.90
22450;DHT22;11392;57.390;-2.468;2023-02-28T16:35:50;6.40;99.90
22450;DHT22;11392;57.390;-2.468;2023-02-28T16:38:17;6.40;99.90
22450;DHT22;11392;57.390;-2.468;2023-02-28T16:40:44;6.40;99.90
22450;DHT22;11392;57.390;-2.468;2023-02-28T16:43:18;6.50;99.90
22450;DHT22;11392;57.390;-2.468;2023-02-28T16:45:47;6.50;99.90
22450;DHT22;11392;57.390;-2.468;2023-02-28T16:48:16;6.40;99.90
22450;DHT22;11392;57.390;-2.468;2023-02-28T16:50:43;6.40;99.90
22450;DHT22;11392;57.390;-2.468;2023-02-28T16:53:11;6.50;99.90
22450;DHT22;11392;57.390;-2.468;2023-02-28T16:55:38;6.40;99.90
22450;DHT22;11392;57.390;-2.468;2023-02-28T16:58:05;6.40;99.90
22450;DHT22;11392;57.390;-2.468;2023-02-28T17:00:32;6.40;99.90
22450;DHT22;11392;57.390;-2.468;2023-02-28T17:02:59;6.20;99.90
22450;DHT22;11392;57.390;-2.468;2023-02-28T17:05:36;6.20;99.90
22450;DHT22;11392;57.390;-2.468;2023-02-28T17:08:05;6.10;99.90
22450;DHT22;11392;57.390;-2.468;2023-02-28T17:10:32;6.00;99.90
22450;DHT22;11392;57.390;-2.468;2023-02-28T17:12:59;6.00;99.90
22450;DHT22;11392;57.390;-2.468;2023-02-28T17:15:41;6.00;99.90
22450;DHT22;11392;57.390;-2.468;2023-02-28T17:18:17;6.00;99.90
22450;DHT22;11392;57.390;-2.468;2023-02-28T17:20:53;5.90;99.90
22450;DHT22;11392;57.390;-2.468;2023-02-28T17:23:20;5.90;99.90
22450;DHT22;11392;57.390;-2.468;2023-02-28T17:25:48;5.90;99.90
22450;DHT22;11392;57.390;-2.468;2023-02-28T17:28:23;5.90;99.90
22450;DHT22;11392;57.390;-2.468;2023-02-28T17:30:50;5.90;99.90
22450;DHT22;11392;57.390;-2.468;2023-02-28T17:33:18;5.90;99.90
22450;DHT22;11392;57.390;-2.468;2023-02-28T17:35:45;5.90;99.90
22450;DHT22;11392;57.390;-2.468;2023-02-28T17:38:17;6.00;99.90
22450;DHT22;11392;57.390;-2.468;2023-02-28T17:40:45;5.90;99.90
22450;DHT22;11392;57.390;-2.468;2023-02-28T17:43:12;5.90;99.90
22450;DHT22;11392;57.390;-2.468;2023-02-28T17:45:39;5.90;99.90
22450;DHT22;11392;57.390;-2.468;2023-02-28T17:48:06;5.90;99.90
22450;DHT22;11392;57.390;-2.468;2023-02-28T17:50:35;5.90;99.90
22450;DHT22;11392;57.390;-2.468;2023-02-28T17:53:02;5.90;99.90
22450;DHT22;11392;57.390;-2.468;2023-02-28T17:55:29;5.90;99.90
22450;DHT22;11392;57.390;-2.468;2023-02-28T17:57:56;5.90;99.90
22450;DHT22;11392;57.390;-2.468;2023-02-28T18:00:23;5.90;99.90
22450;DHT22;11392;57.390;-2.468;2023-02-28T18:02:50;5.90;99.90
22450;DHT22;11392;57.390;-2.468;2023-02-28T18:05:18;5.90;99.90
22450;DHT22;11392;57.390;-2.468;2023-02-28T18:07:45;5.90;99.90
22450;DHT22;11392;57.390;-2.468;2023-02-28T18:10:18;5.90;99.90
22450;DHT22;11392;57.390;-2.468;2023-02-28T18:12:50;6.00;99.90
22450;DHT22;11392;57.390;-2.468;2023-02-28T18:15:19;5.90;99.90
22450;DHT22;11392;57.390;-2.468;2023-02-28T18:17:49;5.90;99.90
22450;DHT22;11392;57.390;-2.468;2023-02-28T18:20:17;6.00;99.90
22450;DHT22;11392;57.390;-2.468;2023-02-28T18:22:44;6.00;99.90
22450;DHT22;11392;57.390;-2.468;2023-02-28T18:25:12;6.00;99.90
22450;DHT22;11392;57.390;-2.468;2023-02-28T18:27:44;6.10;99.90
22450;DHT22;11392;57.390;-2.468;2023-02-28T18:30:20;6.10;99.90
22450;DHT22;11392;57.390;-2.468;2023-02-28T18:32:48;6.10;99.90
22450;DHT22;11392;57.390;-2.468;2023-02-28T18:35:15;6.10;99.90
22450;DHT22;11392;57.390;-2.468;2023-02-28T18:37:42;6.10;99.90
22450;DHT22;11392;57.390;-2.468;2023-02-28T18:40:09;6.10;99.90